New Carlisle, Ohio
Current Conditions -  °F | °C
As of 6:58 PM on Friday 21 Nov 2014 (Local Time) from KFFO Reporting Station
Clear Clear  
Wind Chill: 23°   Ceiling: Unl
Heat Index: 23°   Visibility: 10mi
Dew Point: 11°   Wind: 0mph
Humidity: 59%   Direction: NA
Pressure: 30.46"   Gusts: NA
Location:  39.94°N, 84.02°W
Report Text: KFFO 212358Z AUTO 00000KT 10SM CLR M05/M12 A3046 RMK AO2 SLP332 60000 T10511119 11008 21051 58000
Loading
Personal Weather Stations






























Interactive Weather Map New forecast layout! Learn more

10-Day Weather Forecast

Advertisements
Track Severe Weather on mobile